sensor_id;sensor_type;location;lat;lon;timestamp;P1;durP1;ratioP1;P2;durP2;ratioP2
75358;SDS011;64046;51.978;5.934;2022-12-13T00:02:01;24.77;;;12.93;;
75358;SDS011;64046;51.978;5.934;2022-12-13T00:04:31;27.45;;;14.13;;
75358;SDS011;64046;51.978;5.934;2022-12-13T00:07:00;27.33;;;12.15;;
75358;SDS011;64046;51.978;5.934;2022-12-13T00:09:29;24.48;;;13.80;;
75358;SDS011;64046;51.978;5.934;2022-12-13T00:11:58;25.75;;;12.90;;
75358;SDS011;64046;51.978;5.934;2022-12-13T00:14:27;33.08;;;14.85;;
75358;SDS011;64046;51.978;5.934;2022-12-13T00:17:00;25.92;;;13.68;;
75358;SDS011;64046;51.978;5.934;2022-12-13T00:19:29;20.42;;;12.05;;
75358;SDS011;64046;51.978;5.934;2022-12-13T00:21:58;35.05;;;14.77;;
75358;SDS011;64046;51.978;5.934;2022-12-13T00:24:27;26.05;;;12.48;;
75358;SDS011;64046;51.978;5.934;2022-12-13T00:26:56;33.63;;;14.07;;
75358;SDS011;64046;51.978;5.934;2022-12-13T00:29:26;29.67;;;15.15;;
75358;SDS011;64046;51.978;5.934;2022-12-13T00:31:55;27.38;;;14.32;;
75358;SDS011;64046;51.978;5.934;2022-12-13T00:34:26;28.70;;;13.82;;
75358;SDS011;64046;51.978;5.934;2022-12-13T00:36:56;25.67;;;14.18;;
75358;SDS011;64046;51.978;5.934;2022-12-13T00:39:26;30.25;;;14.68;;
75358;SDS011;64046;51.978;5.934;2022-12-13T00:41:56;26.77;;;13.13;;
75358;SDS011;64046;51.978;5.934;2022-12-13T00:44:25;29.23;;;14.07;;
75358;SDS011;64046;51.978;5.934;2022-12-13T00:46:56;29.05;;;14.52;;
75358;SDS011;64046;51.978;5.934;2022-12-13T00:49:28;30.23;;;15.63;;
75358;SDS011;64046;51.978;5.934;2022-12-13T00:51:57;27.30;;;13.13;;
75358;SDS011;64046;51.978;5.934;2022-12-13T00:54:27;26.02;;;12.40;;
75358;SDS011;64046;51.978;5.934;2022-12-13T00:56:56;26.70;;;12.90;;
75358;SDS011;64046;51.978;5.934;2022-12-13T00:59:26;24.73;;;12.77;;
75358;SDS011;64046;51.978;5.934;2022-12-13T01:01:55;29.50;;;13.48;;
75358;SDS011;64046;51.978;5.934;2022-12-13T01:04:24;27.45;;;13.77;;
75358;SDS011;64046;51.978;5.934;2022-12-13T01:06:56;27.98;;;13.05;;
75358;SDS011;64046;51.978;5.934;2022-12-13T01:09:26;28.85;;;13.93;;
75358;SDS011;64046;51.978;5.934;2022-12-13T01:11:57;28.42;;;14.65;;
75358;SDS011;64046;51.978;5.934;2022-12-13T01:14:28;29.65;;;14.07;;
75358;SDS011;64046;51.978;5.934;2022-12-13T01:16:58;30.25;;;14.48;;
75358;SDS011;64046;51.978;5.934;2022-12-13T01:19:27;27.23;;;13.73;;
75358;SDS011;64046;51.978;5.934;2022-12-13T01:22:01;42.95;;;18.23;;
75358;SDS011;64046;51.978;5.934;2022-12-13T01:24:32;31.98;;;15.00;;
75358;SDS011;64046;51.978;5.934;2022-12-13T01:27:02;28.88;;;13.93;;
75358;SDS011;64046;51.978;5.934;2022-12-13T01:29:31;36.13;;;17.02;;
75358;SDS011;64046;51.978;5.934;2022-12-13T01:32:01;39.20;;;17.65;;
75358;SDS011;64046;51.978;5.934;2022-12-13T01:34:30;32.92;;;15.60;;
75358;SDS011;64046;51.978;5.934;2022-12-13T01:37:02;34.53;;;14.65;;
75358;SDS011;64046;51.978;5.934;2022-12-13T01:39:31;30.80;;;13.95;;
75358;SDS011;64046;51.978;5.934;2022-12-13T01:42:01;25.65;;;13.82;;
75358;SDS011;64046;51.978;5.934;2022-12-13T01:47:26;63.03;;;26.90;;
75358;SDS011;64046;51.978;5.934;2022-12-13T01:50:00;82.70;;;29.85;;
75358;SDS011;64046;51.978;5.934;2022-12-13T01:52:36;94.63;;;35.15;;
75358;SDS011;64046;51.978;5.934;2022-12-13T01:55:06;66.47;;;26.63;;
75358;SDS011;64046;51.978;5.934;2022-12-13T01:57:37;99.93;;;39.33;;
75358;SDS011;64046;51.978;5.934;2022-12-13T02:00:10;141.93;;;49.00;;
75358;SDS011;64046;51.978;5.934;2022-12-13T02:02:41;136.85;;;48.50;;
75358;SDS011;64046;51.978;5.934;2022-12-13T02:05:12;104.40;;;40.25;;
75358;SDS011;64046;51.978;5.934;2022-12-13T02:07:48;70.50;;;28.92;;
75358;SDS011;64046;51.978;5.934;2022-12-13T02:10:18;42.38;;;19.98;;
75358;SDS011;64046;51.978;5.934;2022-12-13T02:12:48;36.75;;;16.17;;
75358;SDS011;64046;51.978;5.934;2022-12-13T02:15:18;38.95;;;17.95;;
75358;SDS011;64046;51.978;5.934;2022-12-13T02:17:53;39.45;;;18.77;;
75358;SDS011;64046;51.978;5.934;2022-12-13T02:20:44;38.63;;;19.65;;
75358;SDS011;64046;51.978;5.934;2022-12-13T02:26:41;32.30;;;16.88;;
75358;SDS011;64046;51.978;5.934;2022-12-13T02:36:04;30.52;;;13.50;;
75358;SDS011;64046;51.978;5.934;2022-12-13T02:38:42;26.13;;;12.55;;
75358;SDS011;64046;51.978;5.934;2022-12-13T02:41:21;33.83;;;15.88;;
75358;SDS011;64046;51.978;5.934;2022-12-13T02:44:00;28.95;;;13.48;;
75358;SDS011;64046;51.978;5.934;2022-12-13T02:46:38;24.23;;;12.10;;
75358;SDS011;64046;51.978;5.934;2022-12-13T02:49:13;27.48;;;13.27;;
75358;SDS011;64046;51.978;5.934;2022-12-13T02:51:43;26.80;;;12.82;;
75358;SDS011;64046;51.978;5.934;2022-12-13T02:54:13;22.92;;;12.93;;
75358;SDS011;64046;51.978;5.934;2022-12-13T02:56:51;26.80;;;12.27;;
75358;SDS011;64046;51.978;5.934;2022-12-13T02:59:21;28.10;;;12.07;;
75358;SDS011;64046;51.978;5.934;2022-12-13T03:01:57;26.42;;;13.18;;
75358;SDS011;64046;51.978;5.934;2022-12-13T03:04:36;28.10;;;13.00;;
75358;SDS011;64046;51.978;5.934;2022-12-13T03:07:32;21.92;;;11.13;;
75358;SDS011;64046;51.978;5.934;2022-12-13T03:10:08;29.98;;;14.20;;
75358;SDS011;64046;51.978;5.934;2022-12-13T03:12:46;23.75;;;11.10;;
75358;SDS011;64046;51.978;5.934;2022-12-13T03:15:37;30.50;;;12.15;;
75358;SDS011;64046;51.978;5.934;2022-12-13T03:18:14;23.98;;;12.02;;
75358;SDS011;64046;51.978;5.934;2022-12-13T03:20:46;25.05;;;12.80;;
75358;SDS011;64046;51.978;5.934;2022-12-13T03:23:17;29.52;;;13.43;;
75358;SDS011;64046;51.978;5.934;2022-12-13T03:25:48;23.08;;;11.38;;
75358;SDS011;64046;51.978;5.934;2022-12-13T03:28:20;27.05;;;12.68;;
75358;SDS011;64046;51.978;5.934;2022-12-13T03:30:50;20.65;;;10.88;;
75358;SDS011;64046;51.978;5.934;2022-12-13T03:33:22;32.97;;;13.00;;
75358;SDS011;64046;51.978;5.934;2022-12-13T03:35:51;25.98;;;12.63;;
75358;SDS011;64046;51.978;5.934;2022-12-13T03:38:21;25.35;;;12.40;;
75358;SDS011;64046;51.978;5.934;2022-12-13T03:40:51;26.92;;;13.30;;
75358;SDS011;64046;51.978;5.934;2022-12-13T03:43:23;25.45;;;13.43;;
75358;SDS011;64046;51.978;5.934;2022-12-13T03:45:53;27.65;;;12.95;;
75358;SDS011;64046;51.978;5.934;2022-12-13T03:48:25;26.35;;;12.40;;
75358;SDS011;64046;51.978;5.934;2022-12-13T03:50:55;24.67;;;10.75;;
75358;SDS011;64046;51.978;5.934;2022-12-13T03:53:24;20.05;;;10.32;;
75358;SDS011;64046;51.978;5.934;2022-12-13T03:55:54;23.42;;;10.90;;
75358;SDS011;64046;51.978;5.934;2022-12-13T03:58:23;24.38;;;11.73;;
75358;SDS011;64046;51.978;5.934;2022-12-13T04:00:52;30.63;;;13.35;;
75358;SDS011;64046;51.978;5.934;2022-12-13T04:03:21;31.20;;;12.70;;
75358;SDS011;64046;51.978;5.934;2022-12-13T04:05:53;29.50;;;13.65;;
75358;SDS011;64046;51.978;5.934;2022-12-13T04:08:23;27.45;;;13.75;;
75358;SDS011;64046;51.978;5.934;2022-12-13T04:10:52;24.42;;;12.40;;
75358;SDS011;64046;51.978;5.934;2022-12-13T04:13:21;23.75;;;11.82;;
75358;SDS011;64046;51.978;5.934;2022-12-13T04:16:00;22.10;;;12.25;;
75358;SDS011;64046;51.978;5.934;2022-12-13T04:18:30;27.58;;;12.80;;
75358;SDS011;64046;51.978;5.934;2022-12-13T04:21:02;28.15;;;13.48;;
75358;SDS011;64046;51.978;5.934;2022-12-13T04:23:31;28.65;;;12.85;;
75358;SDS011;64046;51.978;5.934;2022-12-13T04:26:01;23.27;;;11.00;;
75358;SDS011;64046;51.978;5.934;2022-12-13T04:28:30;27.63;;;12.60;;
75358;SDS011;64046;51.978;5.934;2022-12-13T04:30:59;30.10;;;15.00;;
75358;SDS011;64046;51.978;5.934;2022-12-13T04:33:28;26.92;;;12.77;;
75358;SDS011;64046;51.978;5.934;2022-12-13T04:35:58;25.70;;;12.05;;
75358;SDS011;64046;51.978;5.934;2022-12-13T04:38:30;27.55;;;13.15;;
75358;SDS011;64046;51.978;5.934;2022-12-13T04:41:05;29.25;;;13.80;;
75358;SDS011;64046;51.978;5.934;2022-12-13T04:43:35;22.88;;;11.77;;
75358;SDS011;64046;51.978;5.934;2022-12-13T04:46:05;25.88;;;12.60;;
75358;SDS011;64046;51.978;5.934;2022-12-13T04:48:34;22.45;;;12.30;;
75358;SDS011;64046;51.978;5.934;2022-12-13T04:51:03;26.85;;;12.20;;
75358;SDS011;64046;51.978;5.934;2022-12-13T04:53:35;24.65;;;12.07;;
75358;SDS011;64046;51.978;5.934;2022-12-13T04:56:05;31.42;;;13.85;;
75358;SDS011;64046;51.978;5.934;2022-12-13T04:58:35;26.50;;;13.35;;
75358;SDS011;64046;51.978;5.934;2022-12-13T05:01:05;30.20;;;14.75;;
75358;SDS011;64046;51.978;5.934;2022-12-13T05:03:36;30.15;;;12.98;;
75358;SDS011;64046;51.978;5.934;2022-12-13T05:06:07;26.83;;;14.02;;
75358;SDS011;64046;51.978;5.934;2022-12-13T05:08:40;28.27;;;14.00;;
75358;SDS011;64046;51.978;5.934;2022-12-13T05:11:10;26.02;;;13.88;;
75358;SDS011;64046;51.978;5.934;2022-12-13T05:13:39;24.90;;;11.68;;
75358;SDS011;64046;51.978;5.934;2022-12-13T05:16:09;27.52;;;13.43;;
75358;SDS011;64046;51.978;5.934;2022-12-13T05:18:38;28.63;;;13.57;;
75358;SDS011;64046;51.978;5.934;2022-12-13T05:21:08;27.95;;;14.20;;
75358;SDS011;64046;51.978;5.934;2022-12-13T05:23:41;26.92;;;12.90;;
75358;SDS011;64046;51.978;5.934;2022-12-13T05:26:10;25.58;;;13.27;;
75358;SDS011;64046;51.978;5.934;2022-12-13T05:28:40;27.20;;;13.02;;
75358;SDS011;64046;51.978;5.934;2022-12-13T05:31:10;25.40;;;13.50;;
75358;SDS011;64046;51.978;5.934;2022-12-13T05:33:40;26.35;;;12.68;;
75358;SDS011;64046;51.978;5.934;2022-12-13T05:36:09;25.80;;;12.52;;
75358;SDS011;64046;51.978;5.934;2022-12-13T05:38:41;29.30;;;12.38;;
75358;SDS011;64046;51.978;5.934;2022-12-13T05:41:10;28.63;;;13.45;;
75358;SDS011;64046;51.978;5.934;2022-12-13T05:43:44;27.45;;;12.52;;
75358;SDS011;64046;51.978;5.934;2022-12-13T05:46:14;31.42;;;13.70;;
75358;SDS011;64046;51.978;5.934;2022-12-13T05:48:43;26.00;;;13.45;;
75358;SDS011;64046;51.978;5.934;2022-12-13T05:51:13;23.60;;;12.55;;
75358;SDS011;64046;51.978;5.934;2022-12-13T05:53:44;27.77;;;11.52;;
75358;SDS011;64046;51.978;5.934;2022-12-13T05:56:14;27.85;;;13.82;;
75358;SDS011;64046;51.978;5.934;2022-12-13T05:58:43;26.45;;;14.20;;
75358;SDS011;64046;51.978;5.934;2022-12-13T06:01:13;30.80;;;13.55;;
75358;SDS011;64046;51.978;5.934;2022-12-13T06:03:43;29.92;;;13.90;;
75358;SDS011;64046;51.978;5.934;2022-12-13T06:06:12;28.50;;;13.52;;
75358;SDS011;64046;51.978;5.934;2022-12-13T06:08:45;28.80;;;12.90;;
75358;SDS011;64046;51.978;5.934;2022-12-13T06:11:14;27.70;;;12.40;;
75358;SDS011;64046;51.978;5.934;2022-12-13T06:13:43;22.67;;;11.23;;
75358;SDS011;64046;51.978;5.934;2022-12-13T06:16:18;28.10;;;13.68;;
75358;SDS011;64046;51.978;5.934;2022-12-13T06:18:47;28.98;;;13.38;;
75358;SDS011;64046;51.978;5.934;2022-12-13T06:21:16;28.83;;;13.98;;
75358;SDS011;64046;51.978;5.934;2022-12-13T06:23:48;30.08;;;14.48;;
75358;SDS011;64046;51.978;5.934;2022-12-13T06:26:17;31.05;;;14.85;;
75358;SDS011;64046;51.978;5.934;2022-12-13T06:28:46;31.17;;;14.55;;
75358;SDS011;64046;51.978;5.934;2022-12-13T06:31:16;31.98;;;15.60;;
75358;SDS011;64046;51.978;5.934;2022-12-13T06:33:45;28.70;;;13.45;;
75358;SDS011;64046;51.978;5.934;2022-12-13T06:36:15;27.60;;;14.55;;
75358;SDS011;64046;51.978;5.934;2022-12-13T06:38:44;32.08;;;14.02;;
75358;SDS011;64046;51.978;5.934;2022-12-13T06:41:16;28.15;;;14.40;;
75358;SDS011;64046;51.978;5.934;2022-12-13T06:43:45;27.77;;;14.00;;
75358;SDS011;64046;51.978;5.934;2022-12-13T06:46:16;27.70;;;12.30;;
75358;SDS011;64046;51.978;5.934;2022-12-13T06:48:45;27.88;;;13.48;;
75358;SDS011;64046;51.978;5.934;2022-12-13T06:51:15;33.90;;;15.70;;
75358;SDS011;64046;51.978;5.934;2022-12-13T06:53:44;33.30;;;16.48;;
75358;SDS011;64046;51.978;5.934;2022-12-13T06:56:16;26.27;;;12.60;;
75358;SDS011;64046;51.978;5.934;2022-12-13T06:58:45;33.47;;;15.05;;
75358;SDS011;64046;51.978;5.934;2022-12-13T07:01:15;31.63;;;15.13;;
75358;SDS011;64046;51.978;5.934;2022-12-13T07:03:46;31.65;;;15.02;;
75358;SDS011;64046;51.978;5.934;2022-12-13T07:06:16;26.38;;;12.18;;
75358;SDS011;64046;51.978;5.934;2022-12-13T07:08:47;30.20;;;14.73;;
75358;SDS011;64046;51.978;5.934;2022-12-13T07:11:21;25.45;;;12.65;;
75358;SDS011;64046;51.978;5.934;2022-12-13T07:13:51;32.05;;;14.73;;
75358;SDS011;64046;51.978;5.934;2022-12-13T07:16:22;29.00;;;14.30;;
75358;SDS011;64046;51.978;5.934;2022-12-13T07:18:52;33.35;;;15.27;;
75358;SDS011;64046;51.978;5.934;2022-12-13T07:21:22;27.55;;;13.40;;
75358;SDS011;64046;51.978;5.934;2022-12-13T07:23:52;33.17;;;15.82;;
75358;SDS011;64046;51.978;5.934;2022-12-13T07:26:24;33.08;;;15.35;;
75358;SDS011;64046;51.978;5.934;2022-12-13T07:28:53;33.10;;;16.60;;
75358;SDS011;64046;51.978;5.934;2022-12-13T07:31:23;32.20;;;15.05;;
75358;SDS011;64046;51.978;5.934;2022-12-13T07:33:53;29.08;;;14.93;;
75358;SDS011;64046;51.978;5.934;2022-12-13T07:36:22;31.42;;;15.38;;
75358;SDS011;64046;51.978;5.934;2022-12-13T07:38:52;35.58;;;16.45;;
75358;SDS011;64046;51.978;5.934;2022-12-13T07:41:26;34.42;;;16.08;;
75358;SDS011;64046;51.978;5.934;2022-12-13T07:43:55;30.70;;;15.13;;
75358;SDS011;64046;51.978;5.934;2022-12-13T07:46:24;36.13;;;17.23;;
75358;SDS011;64046;51.978;5.934;2022-12-13T07:48:54;29.38;;;14.43;;
75358;SDS011;64046;51.978;5.934;2022-12-13T07:51:23;39.53;;;16.90;;
75358;SDS011;64046;51.978;5.934;2022-12-13T07:53:53;40.15;;;17.92;;
75358;SDS011;64046;51.978;5.934;2022-12-13T07:56:22;36.08;;;16.80;;
75358;SDS011;64046;51.978;5.934;2022-12-13T07:58:54;37.83;;;15.75;;
75358;SDS011;64046;51.978;5.934;2022-12-13T08:01:23;32.00;;;15.75;;
75358;SDS011;64046;51.978;5.934;2022-12-13T08:03:53;29.50;;;14.43;;
75358;SDS011;64046;51.978;5.934;2022-12-13T08:06:23;30.08;;;14.63;;
75358;SDS011;64046;51.978;5.934;2022-12-13T08:08:53;32.03;;;14.85;;
75358;SDS011;64046;51.978;5.934;2022-12-13T08:11:23;33.38;;;14.90;;
75358;SDS011;64046;51.978;5.934;2022-12-13T08:13:55;33.60;;;17.30;;
75358;SDS011;64046;51.978;5.934;2022-12-13T08:16:24;30.67;;;15.77;;
75358;SDS011;64046;51.978;5.934;2022-12-13T08:18:54;29.73;;;15.05;;
75358;SDS011;64046;51.978;5.934;2022-12-13T08:21:23;28.00;;;14.05;;
75358;SDS011;64046;51.978;5.934;2022-12-13T08:23:53;37.25;;;16.92;;
75358;SDS011;64046;51.978;5.934;2022-12-13T08:26:22;32.97;;;15.35;;
75358;SDS011;64046;51.978;5.934;2022-12-13T08:28:51;26.83;;;14.30;;
75358;SDS011;64046;51.978;5.934;2022-12-13T08:31:23;41.17;;;15.50;;
75358;SDS011;64046;51.978;5.934;2022-12-13T08:33:53;29.15;;;14.70;;
75358;SDS011;64046;51.978;5.934;2022-12-13T08:36:22;33.80;;;16.10;;
75358;SDS011;64046;51.978;5.934;2022-12-13T08:38:53;43.97;;;16.73;;
75358;SDS011;64046;51.978;5.934;2022-12-13T08:41:27;31.85;;;14.57;;
75358;SDS011;64046;51.978;5.934;2022-12-13T08:43:56;41.17;;;17.98;;
75358;SDS011;64046;51.978;5.934;2022-12-13T08:46:28;28.80;;;14.20;;
75358;SDS011;64046;51.978;5.934;2022-12-13T08:48:58;27.50;;;14.07;;
75358;SDS011;64046;51.978;5.934;2022-12-13T08:51:27;34.65;;;16.48;;
75358;SDS011;64046;51.978;5.934;2022-12-13T08:53:56;44.78;;;18.05;;
75358;SDS011;64046;51.978;5.934;2022-12-13T08:56:26;32.13;;;17.05;;
75358;SDS011;64046;51.978;5.934;2022-12-13T08:58:55;30.85;;;15.63;;
75358;SDS011;64046;51.978;5.934;2022-12-13T09:01:24;38.45;;;17.65;;
75358;SDS011;64046;51.978;5.934;2022-12-13T09:03:56;40.30;;;17.88;;
75358;SDS011;64046;51.978;5.934;2022-12-13T09:06:26;37.55;;;17.13;;
75358;SDS011;64046;51.978;5.934;2022-12-13T09:08:55;38.30;;;18.13;;
75358;SDS011;64046;51.978;5.934;2022-12-13T09:11:24;33.28;;;15.23;;
75358;SDS011;64046;51.978;5.934;2022-12-13T09:13:54;35.13;;;16.63;;
75358;SDS011;64046;51.978;5.934;2022-12-13T09:16:23;44.00;;;19.02;;
75358;SDS011;64046;51.978;5.934;2022-12-13T09:18:52;38.05;;;17.55;;
75358;SDS011;64046;51.978;5.934;2022-12-13T09:21:24;41.58;;;19.63;;
75358;SDS011;64046;51.978;5.934;2022-12-13T09:23:54;37.17;;;18.88;;
75358;SDS011;64046;51.978;5.934;2022-12-13T09:26:23;44.75;;;18.60;;
75358;SDS011;64046;51.978;5.934;2022-12-13T09:28:53;37.28;;;18.73;;
75358;SDS011;64046;51.978;5.934;2022-12-13T09:31:22;34.13;;;17.45;;
75358;SDS011;64046;51.978;5.934;2022-12-13T09:33:51;33.70;;;15.63;;
75358;SDS011;64046;51.978;5.934;2022-12-13T09:36:21;37.92;;;16.45;;
75358;SDS011;64046;51.978;5.934;2022-12-13T09:38:53;32.50;;;16.33;;
75358;SDS011;64046;51.978;5.934;2022-12-13T09:41:25;37.60;;;17.55;;
75358;SDS011;64046;51.978;5.934;2022-12-13T09:44:00;39.60;;;19.33;;
75358;SDS011;64046;51.978;5.934;2022-12-13T09:46:33;37.22;;;17.63;;
75358;SDS011;64046;51.978;5.934;2022-12-13T09:49:06;34.90;;;17.38;;
75358;SDS011;64046;51.978;5.934;2022-12-13T09:51:43;40.05;;;18.00;;
75358;SDS011;64046;51.978;5.934;2022-12-13T09:54:17;34.58;;;16.95;;
75358;SDS011;64046;51.978;5.934;2022-12-13T09:56:48;29.70;;;14.82;;
75358;SDS011;64046;51.978;5.934;2022-12-13T09:59:20;37.20;;;18.63;;
75358;SDS011;64046;51.978;5.934;2022-12-13T10:01:55;43.17;;;19.77;;
75358;SDS011;64046;51.978;5.934;2022-12-13T10:04:30;40.50;;;18.75;;
75358;SDS011;64046;51.978;5.934;2022-12-13T10:07:04;36.20;;;18.38;;
75358;SDS011;64046;51.978;5.934;2022-12-13T10:09:39;28.90;;;15.23;;
75358;SDS011;64046;51.978;5.934;2022-12-13T10:12:09;32.40;;;15.18;;
75358;SDS011;64046;51.978;5.934;2022-12-13T10:14:43;33.20;;;16.75;;
75358;SDS011;64046;51.978;5.934;2022-12-13T10:17:17;32.80;;;17.35;;
75358;SDS011;64046;51.978;5.934;2022-12-13T10:19:50;34.72;;;16.75;;
75358;SDS011;64046;51.978;5.934;2022-12-13T10:22:22;36.22;;;17.38;;
75358;SDS011;64046;51.978;5.934;2022-12-13T10:24:52;35.22;;;17.17;;
75358;SDS011;64046;51.978;5.934;2022-12-13T10:27:26;32.92;;;17.02;;
75358;SDS011;64046;51.978;5.934;2022-12-13T10:30:01;35.38;;;17.50;;
75358;SDS011;64046;51.978;5.934;2022-12-13T10:32:41;34.65;;;16.52;;
75358;SDS011;64046;51.978;5.934;2022-12-13T10:35:23;30.20;;;16.33;;
75358;SDS011;64046;51.978;5.934;2022-12-13T10:37:58;33.05;;;17.20;;
75358;SDS011;64046;51.978;5.934;2022-12-13T10:40:32;30.55;;;17.42;;
75358;SDS011;64046;51.978;5.934;2022-12-13T10:43:07;28.85;;;15.25;;
75358;SDS011;64046;51.978;5.934;2022-12-13T10:45:39;33.45;;;17.05;;
75358;SDS011;64046;51.978;5.934;2022-12-13T10:48:16;35.72;;;16.98;;
75358;SDS011;64046;51.978;5.934;2022-12-13T10:50:58;36.90;;;17.92;;
75358;SDS011;64046;51.978;5.934;2022-12-13T10:53:32;39.80;;;18.08;;
75358;SDS011;64046;51.978;5.934;2022-12-13T10:56:03;31.25;;;16.50;;
75358;SDS011;64046;51.978;5.934;2022-12-13T10:58:34;32.92;;;16.52;;
75358;SDS011;64046;51.978;5.934;2022-12-13T11:01:10;32.40;;;17.13;;
75358;SDS011;64046;51.978;5.934;2022-12-13T11:03:56;32.33;;;16.52;;
75358;SDS011;64046;51.978;5.934;2022-12-13T11:06:27;30.25;;;16.17;;
75358;SDS011;64046;51.978;5.934;2022-12-13T11:09:15;36.10;;;17.60;;
75358;SDS011;64046;51.978;5.934;2022-12-13T11:11:45;40.38;;;17.35;;
75358;SDS011;64046;51.978;5.934;2022-12-13T11:14:18;38.08;;;17.67;;
75358;SDS011;64046;51.978;5.934;2022-12-13T11:16:51;35.55;;;17.83;;
75358;SDS011;64046;51.978;5.934;2022-12-13T11:19:25;29.48;;;14.98;;
75358;SDS011;64046;51.978;5.934;2022-12-13T11:22:00;34.53;;;16.55;;
75358;SDS011;64046;51.978;5.934;2022-12-13T11:24:33;34.03;;;17.83;;
75358;SDS011;64046;51.978;5.934;2022-12-13T11:27:08;36.15;;;17.75;;
75358;SDS011;64046;51.978;5.934;2022-12-13T11:29:57;28.50;;;14.82;;
75358;SDS011;64046;51.978;5.934;2022-12-13T11:32:47;35.88;;;18.00;;
75358;SDS011;64046;51.978;5.934;2022-12-13T11:35:38;33.83;;;17.15;;
75358;SDS011;64046;51.978;5.934;2022-12-13T11:38:23;30.80;;;15.65;;
75358;SDS011;64046;51.978;5.934;2022-12-13T11:41:02;37.47;;;17.15;;
75358;SDS011;64046;51.978;5.934;2022-12-13T11:43:40;33.35;;;17.05;;
75358;SDS011;64046;51.978;5.934;2022-12-13T11:46:16;32.80;;;15.68;;
75358;SDS011;64046;51.978;5.934;2022-12-13T11:48:50;29.45;;;16.08;;
75358;SDS011;64046;51.978;5.934;2022-12-13T11:51:25;33.40;;;16.73;;
75358;SDS011;64046;51.978;5.934;2022-12-13T11:54:00;30.73;;;15.43;;
75358;SDS011;64046;51.978;5.934;2022-12-13T11:56:36;34.25;;;17.00;;
75358;SDS011;64046;51.978;5.934;2022-12-13T11:59:14;35.60;;;17.17;;
75358;SDS011;64046;51.978;5.934;2022-12-13T12:01:53;30.15;;;14.70;;
75358;SDS011;64046;51.978;5.934;2022-12-13T12:04:28;29.50;;;15.48;;
75358;SDS011;64046;51.978;5.934;2022-12-13T12:07:06;32.80;;;16.65;;
75358;SDS011;64046;51.978;5.934;2022-12-13T12:09:40;31.73;;;15.95;;
75358;SDS011;64046;51.978;5.934;2022-12-13T12:12:18;33.47;;;15.93;;
75358;SDS011;64046;51.978;5.934;2022-12-13T12:14:55;29.45;;;15.35;;
75358;SDS011;64046;51.978;5.934;2022-12-13T12:17:29;36.45;;;16.85;;
75358;SDS011;64046;51.978;5.934;2022-12-13T12:19:59;25.17;;;13.77;;
75358;SDS011;64046;51.978;5.934;2022-12-13T12:22:31;30.27;;;15.35;;
75358;SDS011;64046;51.978;5.934;2022-12-13T12:25:12;29.92;;;15.40;;
75358;SDS011;64046;51.978;5.934;2022-12-13T12:27:56;27.13;;;14.25;;
75358;SDS011;64046;51.978;5.934;2022-12-13T12:30:38;28.27;;;14.90;;
75358;SDS011;64046;51.978;5.934;2022-12-13T12:33:19;27.90;;;14.75;;
75358;SDS011;64046;51.978;5.934;2022-12-13T12:35:58;29.08;;;14.85;;
75358;SDS011;64046;51.978;5.934;2022-12-13T12:38:44;32.00;;;14.43;;
75358;SDS011;64046;51.978;5.934;2022-12-13T12:41:29;27.40;;;13.95;;
75358;SDS011;64046;51.978;5.934;2022-12-13T12:44:08;33.90;;;16.02;;
75358;SDS011;64046;51.978;5.934;2022-12-13T12:46:54;23.77;;;13.10;;
75358;SDS011;64046;51.978;5.934;2022-12-13T12:49:49;26.33;;;13.95;;
75358;SDS011;64046;51.978;5.934;2022-12-13T12:52:40;28.50;;;14.13;;
75358;SDS011;64046;51.978;5.934;2022-12-13T12:55:18;28.70;;;14.13;;
75358;SDS011;64046;51.978;5.934;2022-12-13T12:57:56;32.88;;;14.90;;
75358;SDS011;64046;51.978;5.934;2022-12-13T13:00:38;29.10;;;14.30;;
75358;SDS011;64046;51.978;5.934;2022-12-13T13:03:17;31.40;;;15.77;;
75358;SDS011;64046;51.978;5.934;2022-12-13T13:05:51;32.38;;;15.65;;
75358;SDS011;64046;51.978;5.934;2022-12-13T13:08:24;30.98;;;14.32;;
75358;SDS011;64046;51.978;5.934;2022-12-13T13:10:59;33.20;;;16.17;;
75358;SDS011;64046;51.978;5.934;2022-12-13T13:13:31;28.55;;;14.63;;
75358;SDS011;64046;51.978;5.934;2022-12-13T13:16:05;32.15;;;16.73;;
75358;SDS011;64046;51.978;5.934;2022-12-13T13:18:55;26.70;;;14.45;;
75358;SDS011;64046;51.978;5.934;2022-12-13T13:24:22;26.33;;;13.48;;
75358;SDS011;64046;51.978;5.934;2022-12-13T13:26:53;32.97;;;16.10;;
75358;SDS011;64046;51.978;5.934;2022-12-13T13:29:31;34.90;;;17.02;;
75358;SDS011;64046;51.978;5.934;2022-12-13T13:32:23;33.58;;;15.63;;
75358;SDS011;64046;51.978;5.934;2022-12-13T13:38:03;29.13;;;14.75;;
75358;SDS011;64046;51.978;5.934;2022-12-13T13:40:52;28.45;;;14.95;;
75358;SDS011;64046;51.978;5.934;2022-12-13T13:43:26;31.45;;;15.30;;
75358;SDS011;64046;51.978;5.934;2022-12-13T13:45:57;31.23;;;15.25;;
75358;SDS011;64046;51.978;5.934;2022-12-13T13:48:44;31.80;;;16.13;;
75358;SDS011;64046;51.978;5.934;2022-12-13T13:54:35;26.20;;;13.20;;
75358;SDS011;64046;51.978;5.934;2022-12-13T13:57:51;32.08;;;15.40;;
75358;SDS011;64046;51.978;5.934;2022-12-13T14:00:48;26.83;;;13.50;;
75358;SDS011;64046;51.978;5.934;2022-12-13T14:04:00;34.22;;;14.93;;
75358;SDS011;64046;51.978;5.934;2022-12-13T14:09:59;28.70;;;14.57;;
75358;SDS011;64046;51.978;5.934;2022-12-13T14:21:51;28.23;;;14.57;;
75358;SDS011;64046;51.978;5.934;2022-12-13T14:24:41;35.30;;;17.17;;
75358;SDS011;64046;51.978;5.934;2022-12-13T14:27:20;32.22;;;15.32;;
75358;SDS011;64046;51.978;5.934;2022-12-13T14:30:01;32.90;;;13.95;;
75358;SDS011;64046;51.978;5.934;2022-12-13T14:32:30;32.03;;;16.55;;
75358;SDS011;64046;51.978;5.934;2022-12-13T14:35:19;32.75;;;16.20;;
75358;SDS011;64046;51.978;5.934;2022-12-13T14:37:59;27.17;;;14.77;;
75358;SDS011;64046;51.978;5.934;2022-12-13T14:40:30;34.13;;;16.13;;
75358;SDS011;64046;51.978;5.934;2022-12-13T14:43:01;36.70;;;17.38;;
75358;SDS011;64046;51.978;5.934;2022-12-13T14:45:31;32.33;;;17.17;;
75358;SDS011;64046;51.978;5.934;2022-12-13T14:48:03;28.25;;;15.40;;
75358;SDS011;64046;51.978;5.934;2022-12-13T14:50:37;31.52;;;15.60;;
75358;SDS011;64046;51.978;5.934;2022-12-13T14:53:14;33.25;;;16.25;;
75358;SDS011;64046;51.978;5.934;2022-12-13T14:56:01;29.60;;;14.60;;
75358;SDS011;64046;51.978;5.934;2022-12-13T14:58:32;29.13;;;14.27;;
75358;SDS011;64046;51.978;5.934;2022-12-13T15:01:02;26.65;;;14.07;;
75358;SDS011;64046;51.978;5.934;2022-12-13T15:03:32;28.77;;;14.63;;
75358;SDS011;64046;51.978;5.934;2022-12-13T15:06:05;29.63;;;14.82;;
75358;SDS011;64046;51.978;5.934;2022-12-13T15:08:35;32.88;;;15.60;;
75358;SDS011;64046;51.978;5.934;2022-12-13T15:11:07;34.10;;;16.23;;
75358;SDS011;64046;51.978;5.934;2022-12-13T15:13:38;30.10;;;14.55;;
75358;SDS011;64046;51.978;5.934;2022-12-13T15:16:13;33.58;;;15.48;;
75358;SDS011;64046;51.978;5.934;2022-12-13T15:19:03;33.08;;;16.15;;
75358;SDS011;64046;51.978;5.934;2022-12-13T15:21:36;33.03;;;16.45;;
75358;SDS011;64046;51.978;5.934;2022-12-13T15:24:07;40.67;;;18.10;;
75358;SDS011;64046;51.978;5.934;2022-12-13T15:26:44;33.58;;;16.92;;
75358;SDS011;64046;51.978;5.934;2022-12-13T15:29:14;39.13;;;17.33;;
75358;SDS011;64046;51.978;5.934;2022-12-13T15:31:48;45.95;;;18.55;;